Novato, CA

11:02 AM PDT on August 20, 2014 (GMT -0700)
Ignacio, Loma Verde | Change Station
CLOSE
Current Station
Personal Weather Station
Location: Novato, CA
Elevation: 100 ft
Nearby Weather Stations

Elev 100 ft 38.06 °N, 122.55 °W | Updated 1 minute ago

Overcast
Overcast
67.1 °F
Feels Like 67.1 °F
N
0.0
Wind Variable Wind from NNW
Gusts 0.0 mph

Today
High -- | Low -- °F
--% Chance of Precip.
Yesterday
High -- | Low -- °F
Precip. -- in
6:29 AM 7:56 PM
Waning Crescent, 20% visible
Pressure 29.96 in
Visibility 10.0 miles
Clouds Overcast 1400 ft
Dew Point 54 °F
Humidity 64%
Rainfall 0.00 in
Snow Depth Not available.
UV 2 out of 12
Pollen 4.90 out of 12
PM2.5 Good
Flu Activity Not available.
METAR KO69 201755Z AUTO 00000KT 10SM OVC014 17/14 A2996 RMK AO1

More Conditions Fewer Conditions

Pressure 29.96 in
Visibility 10.0 miles
Clouds Overcast 1400 ft
Dew Point 54 °F
Humidity 64%
Rainfall 0.00 in
Snow Depth Not available.
UV 2 out of 12
Pollen 4.90 out of 12
PM2.5 Good
Flu Activity Not available.
METAR KO69 201755Z AUTO 00000KT 10SM OVC014 17/14 A2996 RMK AO1

More Conditions Fewer Conditions

10-Day Weather Forecast

Almanac

Astronomy

Aug. 20, 2014 Rise Set
Actual Time 6:29 AM PDT 7:56 PM PDT
Civil Twilight 6:01 AM PDT 8:24 PM PDT
Nautical Twilight 5:28 AM PDT 8:57 PM PDT
Astronomical Twilight 4:53 AM PDT 9:32 PM PDT
Moon 2:15 AM PDT 4:44 PM PDT
Length of Visible Light 14h 22m
Length of Day
13h 27m
Tomorrow will be 2m 14s shorter.
Waning Crescent, 20% of the Moon is Illuminated
Today
Waning Crescent
Aug 25
New
Sep 2
First Quarter
Sep 8
Full
Sep 15
Last Quarter

Today's Extremes

State Highs State Lows

Community

WunderPhotos

Upload Photos

1,745,702 photos uploaded!

WunderBlogs® & News

Nearby

Air Quality

  Air Quality AQ Index Pollutant
Yesterday Good
PM2.5
Yesterday Good
OZONE
Current Good
PM2.5
Wednesday Good
PM2.5
Thursday Good
PM2.5
Friday Good
PM2.5
Saturday Moderate
PM2.5
Sunday Moderate
PM2.5
Monday Moderate
PM2.5

Snow Depth

Station Depth Elevation
Blue Lakes 0 in 8000 ft
Summit Meadow 0 in 9122 ft
Adin Mountain 0 in 6200 ft
Cedar Pass 0 in 7100 ft

Earthquake Activity

City Distance Mag. Time & Date
King City, California 157 miles 2.7 10:26 PM PDT
2014-08-15
King City, California 157 miles 2.9 8:01 PM PDT
2014-08-14
The Geysers, California 45 miles 2.6 8:55 PM PDT
2014-08-13
Upper Lake, California 84 miles 2.9 3:32 PM PDT
2014-08-13
Minimum magnitude displayed is 2.5.

Coastal Water Temperatures

Place Temperature
San Francisco, CA 64.0 °F
Richmond, CA 66.0 °F
Port Chicago, CA 69.1 °F

Nearby Weather Stations